createdAt,value
2019-01-10T00:00:58.911Z,7.03
2019-01-10T00:03:28.840Z,7.27
2019-01-10T00:05:58.878Z,6.97
2019-01-10T00:08:28.745Z,6.30
2019-01-10T00:10:58.597Z,5.93
2019-01-10T00:13:28.279Z,7.40
2019-01-10T00:15:58.039Z,8.03
2019-01-10T00:18:27.890Z,9.73
2019-01-10T00:20:57.645Z,10.10
2019-01-10T00:23:27.558Z,8.83
2019-01-10T00:25:57.472Z,8.63
2019-01-10T00:28:27.567Z,7.10
2019-01-10T00:30:57.464Z,7.70
2019-01-10T00:33:27.428Z,6.47
2019-01-10T00:35:57.306Z,7.93
2019-01-10T00:38:27.231Z,8.73
2019-01-10T00:40:57.245Z,7.90
2019-01-10T00:43:27.191Z,9.00
2019-01-10T00:45:59.485Z,9.00
2019-01-10T00:48:29.327Z,8.07
2019-01-10T00:50:59.146Z,8.93
2019-01-10T00:53:29.058Z,8.90
2019-01-10T00:55:59.020Z,8.47
2019-01-10T00:58:28.723Z,7.30
2019-01-10T01:00:58.586Z,8.23
2019-01-10T01:03:28.644Z,8.73
2019-01-10T01:05:58.574Z,7.20
2019-01-10T01:08:28.423Z,8.50
2019-01-10T01:10:58.350Z,6.63
2019-01-10T01:13:28.189Z,7.53
2019-01-10T01:15:58.283Z,8.03
2019-01-10T01:18:28.032Z,7.03
2019-01-10T01:20:57.966Z,7.30
2019-01-10T01:23:27.739Z,7.07
2019-01-10T01:25:57.590Z,6.03
2019-01-10T01:28:27.594Z,7.37
2019-01-10T01:30:57.431Z,7.73
2019-01-10T01:33:27.354Z,6.30
2019-01-10T01:35:57.360Z,5.90
2019-01-10T01:38:27.195Z,5.83
2019-01-10T01:40:57.149Z,6.50
2019-01-10T01:43:27.165Z,7.17
2019-01-10T01:45:56.977Z,6.70
2019-01-10T01:48:27.020Z,6.20
2019-01-10T01:50:56.875Z,23.67
2019-01-10T01:53:26.478Z,16.77
2019-01-10T01:55:56.643Z,12.83
2019-01-10T01:58:26.529Z,8.60
2019-01-10T02:00:56.336Z,11.97
2019-01-10T02:03:26.322Z,5.83
2019-01-10T02:05:56.069Z,5.30
2019-01-10T02:08:25.563Z,7.30
2019-01-10T02:10:55.471Z,5.47
2019-01-10T02:13:25.312Z,5.23
2019-01-10T02:15:54.362Z,5.43
2019-01-10T02:18:24.199Z,5.67
2019-01-10T02:20:53.982Z,7.27
2019-01-10T02:23:23.905Z,8.23
2019-01-10T02:25:53.766Z,9.80
2019-01-10T02:28:23.760Z,9.90
2019-01-10T02:30:53.557Z,8.13
2019-01-10T02:33:23.297Z,7.93
2019-01-10T02:35:52.869Z,8.00
2019-01-10T02:38:22.681Z,7.80
2019-01-10T02:40:52.746Z,8.03
2019-01-10T02:43:26.478Z,7.10
2019-01-10T02:45:53.979Z,7.40
2019-01-10T02:48:24.059Z,6.47
2019-01-10T02:50:53.037Z,5.50
2019-01-10T02:53:22.808Z,5.43
2019-01-10T02:55:52.788Z,5.30
2019-01-10T02:58:22.753Z,5.43
2019-01-10T03:00:52.676Z,5.80
2019-01-10T03:03:22.593Z,6.33
2019-01-10T03:05:52.486Z,6.43
2019-01-10T03:08:22.423Z,6.53
2019-01-10T03:10:52.441Z,6.50
2019-01-10T03:13:22.326Z,6.60
2019-01-10T03:15:52.259Z,6.97
2019-01-10T03:18:22.112Z,5.77
2019-01-10T03:20:52.685Z,5.47
2019-01-10T03:23:22.368Z,6.87
2019-01-10T03:25:52.132Z,5.83
2019-01-10T03:28:21.910Z,6.53
2019-01-10T03:30:51.738Z,5.73
2019-01-10T03:33:21.641Z,5.23
2019-01-10T03:35:51.458Z,5.30
2019-01-10T03:38:21.262Z,6.40
2019-01-10T03:40:50.972Z,6.13
2019-01-10T03:43:20.923Z,5.73
2019-01-10T03:45:50.842Z,6.37
2019-01-10T03:48:20.757Z,5.43
2019-01-10T03:50:50.467Z,5.90
2019-01-10T03:53:19.823Z,6.03
2019-01-10T03:55:49.837Z,5.73
2019-01-10T03:58:19.641Z,5.30
2019-01-10T04:00:49.791Z,4.43
2019-01-10T04:03:19.804Z,4.33
2019-01-10T04:05:49.582Z,4.60
2019-01-10T04:08:19.451Z,5.13
2019-01-10T04:10:49.536Z,4.87
2019-01-10T04:13:19.287Z,6.30
2019-01-10T04:15:49.296Z,5.57
2019-01-10T04:18:19.192Z,5.57
2019-01-10T04:20:48.162Z,3.60
2019-01-10T04:23:17.012Z,4.57
2019-01-10T04:25:46.371Z,4.87
2019-01-10T04:28:16.084Z,5.30
2019-01-10T04:30:46.335Z,5.40
2019-01-10T04:33:17.462Z,5.37
2019-01-10T04:35:46.923Z,5.77
2019-01-10T04:38:16.189Z,5.50
2019-01-10T04:40:45.652Z,4.93
2019-01-10T04:43:15.458Z,5.40
2019-01-10T04:45:45.279Z,5.93
2019-01-10T04:48:15.067Z,4.40
2019-01-10T04:50:45.000Z,5.20
2019-01-10T04:53:14.648Z,4.83
2019-01-10T04:55:44.567Z,4.63
2019-01-10T04:58:14.444Z,5.50
2019-01-10T05:00:44.400Z,5.67
2019-01-10T05:03:14.699Z,5.07
2019-01-10T05:05:44.607Z,4.80
2019-01-10T05:08:14.381Z,4.80
2019-01-10T05:10:44.440Z,5.10
2019-01-10T05:13:14.101Z,5.20
2019-01-10T05:15:43.843Z,5.03
2019-01-10T05:18:13.979Z,5.40
2019-01-10T05:20:43.720Z,4.97
2019-01-10T05:23:13.605Z,4.70
2019-01-10T05:25:43.371Z,5.47
2019-01-10T05:28:13.169Z,4.87
2019-01-10T05:30:43.046Z,5.10
2019-01-10T05:33:13.071Z,3.77
2019-01-10T05:35:42.936Z,4.70
2019-01-10T05:38:12.762Z,4.70
2019-01-10T05:40:42.632Z,4.43
2019-01-10T05:43:12.567Z,4.43
2019-01-10T05:45:42.519Z,4.33
2019-01-10T05:48:12.419Z,3.33
2019-01-10T05:50:43.868Z,3.60
2019-01-10T05:53:13.658Z,3.67
2019-01-10T05:55:43.618Z,4.30
2019-01-10T05:58:13.509Z,4.07
2019-01-10T06:00:43.540Z,3.53
2019-01-10T06:03:13.130Z,3.17
2019-01-10T06:05:43.388Z,2.93
2019-01-10T06:08:13.280Z,3.90
2019-01-10T06:10:45.746Z,4.70
2019-01-10T06:13:15.697Z,4.30
2019-01-10T06:15:45.692Z,4.23
2019-01-10T06:18:15.533Z,4.00
2019-01-10T06:20:45.622Z,4.27
2019-01-10T06:23:15.390Z,4.43
2019-01-10T06:25:45.546Z,4.53
2019-01-10T06:28:15.404Z,3.60
2019-01-10T06:30:45.216Z,4.00
2019-01-10T06:33:15.199Z,3.17
2019-01-10T06:35:45.079Z,3.17
2019-01-10T06:38:14.904Z,3.33
2019-01-10T06:40:44.893Z,4.17
2019-01-10T06:43:14.769Z,3.43
2019-01-10T06:45:44.643Z,3.60
2019-01-10T06:48:14.811Z,4.40
2019-01-10T06:50:44.746Z,4.70
2019-01-10T06:53:14.689Z,5.00
2019-01-10T06:55:44.889Z,4.50
2019-01-10T06:58:14.714Z,5.47
2019-01-10T07:00:44.546Z,5.97
2019-01-10T07:03:14.515Z,5.60
2019-01-10T07:05:44.484Z,6.00
2019-01-10T07:08:14.767Z,5.10
2019-01-10T07:10:44.756Z,5.40
2019-01-10T07:13:14.415Z,5.00
2019-01-10T07:15:44.172Z,5.40
2019-01-10T07:18:14.144Z,5.53
2019-01-10T07:20:43.761Z,5.17
2019-01-10T07:23:13.297Z,5.87
2019-01-10T07:25:43.092Z,5.10
2019-01-10T07:28:19.104Z,5.93
2019-01-10T07:30:49.001Z,5.50
2019-01-10T07:33:18.737Z,4.63
2019-01-10T07:35:53.731Z,4.53
2019-01-10T07:38:23.475Z,4.90
2019-01-10T07:40:53.386Z,4.40
2019-01-10T07:43:24.119Z,5.70
2019-01-10T07:45:53.944Z,4.10
2019-01-10T07:48:23.591Z,4.57
2019-01-10T07:50:53.542Z,5.33
2019-01-10T07:53:23.508Z,4.40
2019-01-10T07:55:53.724Z,4.00
2019-01-10T07:58:23.785Z,5.20
2019-01-10T08:00:54.033Z,8.23
2019-01-10T08:03:24.097Z,7.37
2019-01-10T08:05:53.955Z,7.20
2019-01-10T08:08:23.648Z,5.40
2019-01-10T08:10:53.501Z,4.80
2019-01-10T08:13:23.312Z,7.30
2019-01-10T08:15:53.115Z,5.70
2019-01-10T08:18:22.852Z,5.80
2019-01-10T08:20:52.426Z,4.80
2019-01-10T08:23:22.146Z,7.40
2019-01-10T08:25:51.753Z,12.50
2019-01-10T08:28:21.569Z,9.27
2019-01-10T08:30:51.311Z,8.80
2019-01-10T08:33:21.017Z,8.30
2019-01-10T08:35:49.847Z,9.03
2019-01-10T08:38:19.125Z,9.13
2019-01-10T08:40:49.237Z,8.83
2019-01-10T08:43:18.328Z,12.43
2019-01-10T08:45:47.379Z,8.93
2019-01-10T08:48:16.550Z,10.83
2019-01-10T08:50:45.694Z,11.60
2019-01-10T08:53:15.705Z,13.60
2019-01-10T08:55:44.952Z,13.83
2019-01-10T08:58:13.912Z,13.30
2019-01-10T09:00:44.712Z,12.00
2019-01-10T09:03:14.759Z,10.00
2019-01-10T09:05:43.740Z,9.87
2019-01-10T09:08:12.704Z,9.40
2019-01-10T09:10:42.396Z,9.07
2019-01-10T09:13:11.973Z,9.77
2019-01-10T09:15:40.925Z,7.83
2019-01-10T09:18:09.867Z,7.50
2019-01-10T09:20:38.983Z,5.73
2019-01-10T09:23:08.183Z,5.03
2019-01-10T09:25:37.155Z,5.30
2019-01-10T09:28:06.543Z,5.93
2019-01-10T09:30:38.651Z,6.03
2019-01-10T09:33:08.433Z,7.87
2019-01-10T09:35:37.516Z,5.87
2019-01-10T09:38:07.126Z,10.30
2019-01-10T09:40:37.426Z,10.20
2019-01-10T09:43:06.654Z,8.73
2019-01-10T09:45:43.042Z,8.93
2019-01-10T09:48:06.562Z,9.07
2019-01-10T09:50:35.724Z,8.57
2019-01-10T09:53:05.283Z,9.43
2019-01-10T09:55:34.240Z,11.07
2019-01-10T09:58:03.275Z,11.50
2019-01-10T10:00:32.543Z,11.33
2019-01-10T10:03:02.382Z,8.73
2019-01-10T10:05:31.572Z,10.53
2019-01-10T10:08:00.753Z,11.57
2019-01-10T10:10:30.133Z,5.03
2019-01-10T10:12:59.276Z,4.60
2019-01-10T10:15:28.786Z,4.17
2019-01-10T10:17:58.160Z,3.67
2019-01-10T10:20:27.420Z,4.17
2019-01-10T10:22:57.203Z,4.10
2019-01-10T10:25:27.231Z,5.27
2019-01-10T10:27:56.485Z,6.83
2019-01-10T10:30:26.108Z,5.17
2019-01-10T10:32:55.564Z,13.27
2019-01-10T10:35:25.198Z,6.23
2019-01-10T10:37:54.740Z,6.10
2019-01-10T10:40:24.652Z,5.33
2019-01-10T10:42:54.419Z,7.90
2019-01-10T10:45:24.273Z,6.10
2019-01-10T10:47:54.246Z,6.27
2019-01-10T10:50:26.306Z,7.13
2019-01-10T10:52:56.000Z,10.77
2019-01-10T10:55:25.980Z,11.77
2019-01-10T10:57:55.822Z,5.90
2019-01-10T11:00:29.027Z,5.13
2019-01-10T11:02:58.934Z,4.93
2019-01-10T11:05:28.418Z,5.27
2019-01-10T11:07:58.102Z,5.83
2019-01-10T11:10:27.810Z,4.80
2019-01-10T11:12:57.643Z,5.47
2019-01-10T11:15:27.980Z,4.47
2019-01-10T11:17:57.488Z,4.57
2019-01-10T11:20:27.261Z,5.60
2019-01-10T11:22:57.259Z,5.03
2019-01-10T11:25:27.111Z,4.70
2019-01-10T11:27:56.988Z,5.80
2019-01-10T11:30:26.899Z,6.93
2019-01-10T11:32:56.977Z,6.90
2019-01-10T11:35:26.872Z,7.97
2019-01-10T11:37:56.977Z,9.13
2019-01-10T11:40:26.675Z,13.77
2019-01-10T11:42:56.558Z,11.60
2019-01-10T11:45:26.530Z,10.87
2019-01-10T11:47:56.410Z,7.90
2019-01-10T11:50:26.316Z,8.10
2019-01-10T11:52:56.254Z,9.30
2019-01-10T11:55:26.044Z,7.70
2019-01-10T11:57:55.845Z,10.40
2019-01-10T12:00:27.983Z,7.90
2019-01-10T12:02:57.742Z,9.43
2019-01-10T12:05:27.708Z,9.20
2019-01-10T12:07:57.675Z,7.70
2019-01-10T12:10:27.457Z,8.30
2019-01-10T12:12:57.255Z,7.60
2019-01-10T12:15:27.221Z,8.53
2019-01-10T12:17:57.615Z,8.53
2019-01-10T12:20:27.345Z,10.43
2019-01-10T12:22:57.368Z,9.10
2019-01-10T12:25:27.295Z,9.07
2019-01-10T12:27:57.398Z,9.23
2019-01-10T12:30:27.424Z,12.10
2019-01-10T12:32:57.421Z,11.37
2019-01-10T12:35:27.391Z,14.20
2019-01-10T12:37:57.335Z,13.20
2019-01-10T12:40:27.065Z,9.20
2019-01-10T12:42:56.809Z,8.83
2019-01-10T12:45:26.736Z,9.47
2019-01-10T12:47:56.558Z,26.00
2019-01-10T12:50:28.154Z,20.87
2019-01-10T12:52:58.270Z,9.13
2019-01-10T12:55:28.108Z,15.47
2019-01-10T12:57:57.968Z,10.37
2019-01-10T13:00:28.112Z,11.73
2019-01-10T13:02:58.036Z,19.67
2019-01-10T13:05:27.988Z,14.63
2019-01-10T13:08:03.443Z,9.63
2019-01-10T13:10:29.741Z,10.60
2019-01-10T13:12:59.756Z,15.43
2019-01-10T13:15:29.763Z,18.53
2019-01-10T13:17:59.778Z,10.40
2019-01-10T13:20:29.978Z,10.20
2019-01-10T13:23:00.129Z,11.20
2019-01-10T13:25:30.048Z,17.50
2019-01-10T13:27:59.855Z,16.53
2019-01-10T13:30:29.952Z,13.97
2019-01-10T13:32:59.764Z,18.70
2019-01-10T13:35:29.661Z,16.57
2019-01-10T13:37:59.755Z,25.50
2019-01-10T13:40:29.620Z,26.73
2019-01-10T13:42:59.519Z,20.13
2019-01-10T13:45:29.492Z,16.87
2019-01-10T13:47:59.372Z,11.17
2019-01-10T13:50:29.312Z,10.50
2019-01-10T13:52:59.318Z,9.93
2019-01-10T13:55:29.569Z,21.83
2019-01-10T13:57:59.589Z,14.43
2019-01-10T14:00:35.386Z,15.47
2019-01-10T14:03:01.498Z,18.80
2019-01-10T14:05:31.368Z,13.30
2019-01-10T14:08:01.330Z,14.80
2019-01-10T14:10:31.213Z,8.83
2019-01-10T14:13:00.953Z,12.77
2019-01-10T14:15:31.103Z,14.70
2019-01-10T14:18:00.774Z,11.03
2019-01-10T14:20:30.571Z,10.00
2019-01-10T14:23:01.088Z,10.33
2019-01-10T14:25:30.886Z,9.27
2019-01-10T14:28:00.807Z,10.67
2019-01-10T14:30:32.988Z,9.57
2019-01-10T14:33:03.651Z,10.03
2019-01-10T14:35:33.500Z,10.30
2019-01-10T14:38:03.519Z,10.70
2019-01-10T14:40:33.391Z,11.50
2019-01-10T14:43:03.207Z,13.80
2019-01-10T14:45:33.354Z,12.27
2019-01-10T14:48:03.354Z,11.20
2019-01-10T14:50:33.187Z,11.83
2019-01-10T14:53:03.184Z,11.87
2019-01-10T14:55:33.071Z,13.17
2019-01-10T14:58:02.742Z,14.10
2019-01-10T15:00:32.678Z,16.30
2019-01-10T15:03:02.695Z,16.60
2019-01-10T15:05:34.529Z,15.50
2019-01-10T15:08:04.215Z,21.13
2019-01-10T15:10:33.981Z,18.80
2019-01-10T15:13:03.938Z,18.60
2019-01-10T15:15:33.843Z,23.33
2019-01-10T15:18:03.082Z,17.20
2019-01-10T15:20:33.078Z,18.30
2019-01-10T15:23:02.718Z,23.03
2019-01-10T15:25:36.936Z,24.47
2019-01-10T15:28:07.717Z,15.70
2019-01-10T15:30:37.276Z,13.17
2019-01-10T15:33:06.465Z,11.90
2019-01-10T15:35:36.247Z,13.17
2019-01-10T15:38:05.334Z,16.03
2019-01-10T15:40:34.691Z,15.40
2019-01-10T15:43:04.343Z,15.67
2019-01-10T15:45:33.546Z,14.33
2019-01-10T15:48:02.592Z,15.80
2019-01-10T15:50:31.676Z,20.10
2019-01-10T15:53:00.873Z,13.10
2019-01-10T15:55:30.371Z,13.37
2019-01-10T15:58:00.121Z,14.83
2019-01-10T16:00:29.432Z,15.00
2019-01-10T16:02:58.569Z,15.27
2019-01-10T16:05:28.574Z,16.10
2019-01-10T16:08:02.762Z,13.07
2019-01-10T16:10:32.586Z,33.27
2019-01-10T16:13:01.983Z,53.47
2019-01-10T16:15:31.577Z,31.97
2019-01-10T16:18:01.108Z,17.93
2019-01-10T16:20:30.423Z,15.20
2019-01-10T16:23:02.004Z,13.97
2019-01-10T16:25:31.362Z,14.80
2019-01-10T16:28:00.674Z,16.40
2019-01-10T16:30:30.054Z,13.33
2019-01-10T16:32:59.769Z,13.17
2019-01-10T16:35:31.524Z,15.20
2019-01-10T16:38:00.793Z,16.97
2019-01-10T16:40:30.627Z,19.63
2019-01-10T16:43:02.618Z,15.50
2019-01-10T16:45:32.341Z,16.40
2019-01-10T16:48:01.637Z,16.67
2019-01-10T16:50:30.971Z,15.53
2019-01-10T16:53:00.488Z,17.70
2019-01-10T16:55:35.487Z,17.00
2019-01-10T16:58:05.805Z,15.50
2019-01-10T17:00:35.399Z,15.17
2019-01-10T17:03:04.625Z,14.73
2019-01-10T17:05:33.906Z,14.17
2019-01-10T17:08:03.369Z,16.07
2019-01-10T17:10:32.885Z,15.50
2019-01-10T17:13:02.342Z,14.83
2019-01-10T17:15:33.217Z,15.10
2019-01-10T17:18:04.346Z,13.13
2019-01-10T17:20:33.826Z,13.73
2019-01-10T17:23:03.717Z,13.30
2019-01-10T17:25:33.891Z,13.33
2019-01-10T17:28:03.361Z,14.17
2019-01-10T17:30:33.294Z,13.90
2019-01-10T17:33:03.041Z,13.53
2019-01-10T17:35:32.780Z,13.23
2019-01-10T17:38:02.303Z,19.23
2019-01-10T17:40:32.018Z,29.43
2019-01-10T17:43:01.714Z,31.13
2019-01-10T17:45:32.619Z,26.00
2019-01-10T17:48:02.266Z,23.17
2019-01-10T17:50:32.092Z,25.90
2019-01-10T17:53:01.892Z,51.50
2019-01-10T17:55:31.526Z,38.33
2019-01-10T17:58:00.773Z,28.20
2019-01-10T18:00:32.871Z,18.40
2019-01-10T18:03:02.930Z,16.87
2019-01-10T18:05:33.189Z,15.17
2019-01-10T18:08:02.757Z,15.53
2019-01-10T18:10:39.004Z,16.10
2019-01-10T18:13:09.053Z,16.10
2019-01-10T18:15:38.966Z,15.10
2019-01-10T18:18:09.024Z,18.17
2019-01-10T18:20:39.029Z,23.10
2019-01-10T18:23:08.925Z,23.67
2019-01-10T18:25:38.730Z,24.80
2019-01-10T18:28:08.869Z,24.97
2019-01-10T18:30:43.347Z,22.50
2019-01-10T18:33:10.642Z,18.90
2019-01-10T18:35:40.213Z,19.73
2019-01-10T18:38:11.707Z,20.23
2019-01-10T18:40:41.742Z,31.07
2019-01-10T18:43:11.681Z,24.90
2019-01-10T18:45:41.509Z,17.07
2019-01-10T18:48:11.498Z,19.50
2019-01-10T18:50:41.436Z,35.33
2019-01-10T18:53:11.296Z,19.17
2019-01-10T18:55:41.469Z,37.13
2019-01-10T18:58:11.374Z,32.17
2019-01-10T19:00:41.578Z,48.70
2019-01-10T19:03:11.801Z,21.53
2019-01-10T19:05:41.708Z,16.43
2019-01-10T19:08:11.979Z,15.10
2019-01-10T19:10:41.961Z,15.57
2019-01-10T19:13:11.956Z,18.27
2019-01-10T19:15:41.937Z,18.40
2019-01-10T19:18:11.690Z,18.20
2019-01-10T19:20:41.675Z,17.27
2019-01-10T19:23:11.663Z,17.80
2019-01-10T19:25:41.920Z,19.47
2019-01-10T19:28:12.175Z,21.90
2019-01-10T19:30:41.964Z,20.03
2019-01-10T19:33:13.717Z,18.80
2019-01-10T19:35:43.867Z,22.07
2019-01-10T19:38:13.854Z,21.30
2019-01-10T19:40:43.964Z,20.50
2019-01-10T19:43:13.758Z,21.13
2019-01-10T19:45:43.873Z,20.80
2019-01-10T19:48:13.888Z,19.60
2019-01-10T19:50:43.968Z,17.27
2019-01-10T19:53:14.233Z,18.77
2019-01-10T19:55:44.314Z,21.20
2019-01-10T19:58:14.224Z,17.47
2019-01-10T20:00:44.170Z,16.90
2019-01-10T20:03:14.045Z,18.03
2019-01-10T20:05:43.891Z,17.73
2019-01-10T20:08:13.664Z,17.67
2019-01-10T20:10:43.920Z,17.33
2019-01-10T20:13:13.967Z,16.33
2019-01-10T20:15:43.931Z,15.17
2019-01-10T20:18:16.319Z,15.13
2019-01-10T20:20:47.043Z,15.73
2019-01-10T20:23:16.968Z,15.33
2019-01-10T20:25:47.038Z,15.40
2019-01-10T20:28:17.063Z,15.40
2019-01-10T20:30:46.998Z,16.27
2019-01-10T20:33:17.302Z,15.93
2019-01-10T20:35:47.180Z,15.10
2019-01-10T20:38:17.490Z,15.20
2019-01-10T20:40:47.764Z,16.10
2019-01-10T20:43:17.023Z,32.53
2019-01-10T20:45:47.055Z,23.00
2019-01-10T20:48:22.401Z,20.60
2019-01-10T20:50:48.645Z,18.13
2019-01-10T20:53:18.543Z,21.47
2019-01-10T20:55:48.664Z,19.30
2019-01-10T20:58:18.622Z,16.47
2019-01-10T21:00:48.662Z,18.97
2019-01-10T21:03:18.769Z,18.47
2019-01-10T21:05:50.361Z,20.80
2019-01-10T21:08:20.322Z,15.87
2019-01-10T21:10:50.358Z,16.50
2019-01-10T21:13:20.112Z,16.80
2019-01-10T21:15:51.582Z,17.60
2019-01-10T21:18:21.626Z,16.83
2019-01-10T21:20:51.424Z,16.50
2019-01-10T21:23:22.931Z,16.23
2019-01-10T21:25:52.735Z,15.37
2019-01-10T21:28:24.452Z,15.53
2019-01-10T21:30:54.649Z,17.10
2019-01-10T21:33:24.634Z,15.20
2019-01-10T21:35:54.727Z,16.20
2019-01-10T21:38:24.528Z,15.70
2019-01-10T21:40:55.077Z,14.93
2019-01-10T21:43:25.298Z,16.37
2019-01-10T21:45:55.366Z,15.67
2019-01-10T21:48:28.156Z,13.73
2019-01-10T21:50:58.031Z,15.23
2019-01-10T21:53:27.910Z,15.33
2019-01-10T21:55:57.890Z,13.80
2019-01-10T21:58:28.125Z,16.30
2019-01-10T22:00:57.523Z,17.23
2019-01-10T22:03:27.156Z,26.83
2019-01-10T22:05:56.428Z,20.47
2019-01-10T22:08:38.056Z,18.33
2019-01-10T22:11:16.067Z,16.03
2019-01-10T22:13:58.649Z,14.87
2019-01-10T22:16:28.146Z,14.50
2019-01-10T22:18:57.816Z,14.77
2019-01-10T22:21:27.449Z,17.77
2019-01-10T22:23:57.181Z,16.40
2019-01-10T22:26:27.557Z,17.10
2019-01-10T22:28:57.738Z,20.50
2019-01-10T22:31:27.384Z,31.83
2019-01-10T22:33:57.249Z,21.90
2019-01-10T22:36:27.477Z,22.87
2019-01-10T22:38:57.540Z,17.30
2019-01-10T22:41:29.225Z,16.03
2019-01-10T22:44:02.144Z,16.80
2019-01-10T22:46:32.105Z,18.70
2019-01-10T22:49:02.161Z,20.00
2019-01-10T22:51:32.045Z,20.70
2019-01-10T22:54:02.002Z,18.13
2019-01-10T22:56:31.850Z,17.07
2019-01-10T22:59:01.774Z,17.23
2019-01-10T23:01:33.139Z,18.93
2019-01-10T23:04:03.063Z,22.20
2019-01-10T23:06:33.021Z,15.87
2019-01-10T23:09:02.483Z,22.00
2019-01-10T23:11:32.058Z,20.50
2019-01-10T23:14:02.000Z,18.80
2019-01-10T23:16:31.861Z,20.73
2019-01-10T23:19:02.050Z,19.33
2019-01-10T23:21:31.940Z,17.03
2019-01-10T23:24:02.257Z,14.30
2019-01-10T23:26:32.310Z,14.87
2019-01-10T23:29:02.107Z,17.67
2019-01-10T23:31:31.939Z,18.57
2019-01-10T23:34:08.421Z,14.13
2019-01-10T23:36:38.459Z,18.10
2019-01-10T23:39:16.670Z,14.90
2019-01-10T23:41:46.521Z,13.57
2019-01-10T23:44:16.723Z,15.90
2019-01-10T23:46:46.444Z,16.40
2019-01-10T23:49:31.706Z,16.20
2019-01-10T23:51:58.583Z,15.30
2019-01-10T23:54:28.080Z,18.07
2019-01-10T23:56:57.997Z,24.20
2019-01-10T23:59:28.064Z,35.80
